Pavillion, Wyoming
Current Conditions -  °F | °C
As of 8:53 PM on Sunday 21 Dec 2014 (Local Time) from KRIW Reporting Station
Clear Clear  
Wind Chill: 22°   Ceiling: Unl
Heat Index: 33°   Visibility: 10mi
Dew Point: 20°   Wind: 20mph
Humidity: 59%   Direction: 310°NW
Pressure: 29.68"   Gusts: 26mph
Location:  43.24°N, 108.69°W
Report Text: KRIW 220353Z AUTO 31017G23KT 10SM CLR 01/M07 A2968 RMK AO2 PK WND 30027/0255 SLP074 T00061067
Loading
Personal Weather Stations






























Interactive Weather Map New forecast layout! Learn more

10-Day Weather Forecast

Advertisements
Track Severe Weather on mobile